Skip Navigation Links
NOAA logo - Click to go to the NOAA homepage
NOAA's National Weather Service
Alaska Aviation Weather Unit
  NWS logo - Click to go to the NWS homepage
Left Navbar Graphic     17 AKDT = 01 GMT

   
NOAA is celebrating 200 years of science, service, and stewardship. Visit the NOAA 200th celebration Web site to learn more.
USA.gov is the U.S. Government's official Web portal to all Federal, state and local government Web resources and services.
Facebook
NWS on Facebook

Important Change Regarding the AAWU Web Presence

 

Over the last several months, the AAWU has been working to navigate its webpages to a nationally supported server. Security, as well as other needs, have necessitated the change.  In the process, we have made an effort to enhance the functionality of our website, as well as some of our products. As of June 27, 2017, aawu.arh.noaa.gov will be discontinued. The new AAWU web address is weather.gov/aawu. It is now live and will run in-parallel with the old site until it is discontinued. Please send any feedback or questions regarding the new webpages to nws.ar.aawu.webauthors@noaa.gov.  Thank you for your patience during this time of transition.
AAWU Home :: Display TAF Add Bookmark
SPECI PAMY 251908Z AUTO 14016G22KT 10SM BKN013 OVC025 09/08 A2986 RMK
     AO2=

METAR PAMY 251956Z AUTO 14015G19KT 10SM BKN015 OVC021 09/08 A2984 RMK
     AO2 SLP108 T00940078=

METAR PAMY 252056Z AUTO 13014G22KT 10SM BKN015 OVC020 09/07 A2983 RMK
     AO2 SLP103 60000 T00940072 56017=

METAR PAMY 252156Z AUTO 13020G25KT 10SM OVC015 10/07 A2981 RMK AO2
 PK WND 14026/2133 SLP097 P0001 T01000072=

PAMY 252217Z AUTO 14018KT 5SM -RA BR FEW009 OVC015 09/08 A2980 RMK
     AO2 PK WND 14027/2202 RAB11 P0000=

METAR PAMY 252356Z AUTO 13020G25KT 10SM OVC017 10/07 A2978 RMK AO2
 PK WND 14026/2344 SLP086 60001 T01000067 10100 20089 57017=

SPECI PAMY 260051Z AUTO 14023G28KT 10SM -RA OVC014 10/07 A2976 RMK AO2
     PK WND 14030/0011 RAB42 P0000=

METAR PAMY 260056Z AUTO 15022G28KT 10SM -RA OVC014 10/07 A2976 RMK
 AO2 PK WND 14030/0011 RAB42 SLP080 P0000 T01000072=


NOAA's National Weather Service
Alaska Aviation Weather Unit
6930 Sand Lake Road
Anchorage, AK 99502-1845
Disclaimer
Credits
Glossary
Privacy Policy
About Us
Career Opportunities
Contact AAWU Internet Services Site last modified: April, 17th 2012